sensor_id;sensor_type;location;lat;lon;timestamp;P1;durP1;ratioP1;P2;durP2;ratioP2
56321;SDS011;42227;6.376;-10.782;2023-12-29T00:01:04;157.90;;;96.20;;
56321;SDS011;42227;6.376;-10.782;2023-12-29T00:03:34;161.88;;;93.47;;
56321;SDS011;42227;6.376;-10.782;2023-12-29T00:06:03;147.00;;;91.03;;
56321;SDS011;42227;6.376;-10.782;2023-12-29T00:08:32;157.57;;;90.97;;
56321;SDS011;42227;6.376;-10.782;2023-12-29T00:11:00;160.70;;;91.13;;
56321;SDS011;42227;6.376;-10.782;2023-12-29T00:13:29;137.18;;;84.07;;
56321;SDS011;42227;6.376;-10.782;2023-12-29T00:15:57;148.43;;;85.10;;
56321;SDS011;42227;6.376;-10.782;2023-12-29T00:18:26;138.05;;;78.95;;
56321;SDS011;42227;6.376;-10.782;2023-12-29T00:20:54;158.38;;;82.90;;
56321;SDS011;42227;6.376;-10.782;2023-12-29T00:23:33;145.35;;;86.00;;
56321;SDS011;42227;6.376;-10.782;2023-12-29T00:26:01;134.43;;;83.50;;
56321;SDS011;42227;6.376;-10.782;2023-12-29T00:28:30;146.52;;;89.35;;
56321;SDS011;42227;6.376;-10.782;2023-12-29T00:30:59;129.20;;;88.03;;
56321;SDS011;42227;6.376;-10.782;2023-12-29T00:33:30;135.13;;;85.03;;
56321;SDS011;42227;6.376;-10.782;2023-12-29T00:35:59;146.63;;;106.93;;
56321;SDS011;42227;6.376;-10.782;2023-12-29T00:38:27;159.15;;;101.07;;
56321;SDS011;42227;6.376;-10.782;2023-12-29T00:40:56;142.80;;;99.32;;
56321;SDS011;42227;6.376;-10.782;2023-12-29T00:43:25;102.57;;;58.55;;
56321;SDS011;42227;6.376;-10.782;2023-12-29T00:45:53;100.43;;;51.95;;
56321;SDS011;42227;6.376;-10.782;2023-12-29T00:48:33;94.22;;;59.88;;
56321;SDS011;42227;6.376;-10.782;2023-12-29T00:51:03;106.75;;;60.08;;
56321;SDS011;42227;6.376;-10.782;2023-12-29T00:53:32;101.50;;;52.65;;
56321;SDS011;42227;6.376;-10.782;2023-12-29T00:56:02;99.10;;;63.42;;
56321;SDS011;42227;6.376;-10.782;2023-12-29T00:58:38;134.63;;;81.80;;
56321;SDS011;42227;6.376;-10.782;2023-12-29T01:01:07;167.73;;;111.80;;
56321;SDS011;42227;6.376;-10.782;2023-12-29T01:03:35;128.60;;;83.07;;
56321;SDS011;42227;6.376;-10.782;2023-12-29T01:06:05;111.50;;;63.17;;
56321;SDS011;42227;6.376;-10.782;2023-12-29T01:08:34;84.00;;;51.22;;
56321;SDS011;42227;6.376;-10.782;2023-12-29T01:11:02;87.75;;;50.42;;
56321;SDS011;42227;6.376;-10.782;2023-12-29T01:13:31;71.05;;;38.78;;
56321;SDS011;42227;6.376;-10.782;2023-12-29T01:15:59;68.80;;;36.58;;
56321;SDS011;42227;6.376;-10.782;2023-12-29T01:18:28;59.40;;;38.45;;
56321;SDS011;42227;6.376;-10.782;2023-12-29T01:20:56;68.45;;;40.05;;
56321;SDS011;42227;6.376;-10.782;2023-12-29T01:23:25;82.72;;;48.45;;
56321;SDS011;42227;6.376;-10.782;2023-12-29T01:25:53;107.72;;;51.83;;
56321;SDS011;42227;6.376;-10.782;2023-12-29T01:28:22;105.63;;;66.18;;
56321;SDS011;42227;6.376;-10.782;2023-12-29T01:30:51;119.32;;;63.33;;
56321;SDS011;42227;6.376;-10.782;2023-12-29T01:33:20;102.63;;;54.72;;
56321;SDS011;42227;6.376;-10.782;2023-12-29T01:35:49;118.80;;;61.40;;
56321;SDS011;42227;6.376;-10.782;2023-12-29T01:38:18;79.18;;;45.70;;
56321;SDS011;42227;6.376;-10.782;2023-12-29T01:40:46;111.43;;;63.17;;
56321;SDS011;42227;6.376;-10.782;2023-12-29T01:43:15;115.18;;;63.33;;
56321;SDS011;42227;6.376;-10.782;2023-12-29T01:45:43;101.78;;;58.83;;
56321;SDS011;42227;6.376;-10.782;2023-12-29T01:48:23;104.13;;;59.50;;
56321;SDS011;42227;6.376;-10.782;2023-12-29T01:50:53;95.95;;;55.72;;
56321;SDS011;42227;6.376;-10.782;2023-12-29T01:53:22;102.07;;;52.10;;
56321;SDS011;42227;6.376;-10.782;2023-12-29T01:56:05;115.85;;;70.97;;
56321;SDS011;42227;6.376;-10.782;2023-12-29T01:58:35;90.50;;;51.67;;
56321;SDS011;42227;6.376;-10.782;2023-12-29T02:01:04;89.30;;;41.60;;
56321;SDS011;42227;6.376;-10.782;2023-12-29T02:03:35;82.55;;;39.00;;
56321;SDS011;42227;6.376;-10.782;2023-12-29T02:06:05;65.32;;;37.50;;
56321;SDS011;42227;6.376;-10.782;2023-12-29T02:08:40;69.55;;;35.05;;
56321;SDS011;42227;6.376;-10.782;2023-12-29T02:11:09;67.90;;;32.20;;
56321;SDS011;42227;6.376;-10.782;2023-12-29T02:13:37;80.10;;;35.08;;
56321;SDS011;42227;6.376;-10.782;2023-12-29T02:16:07;60.85;;;30.85;;
56321;SDS011;42227;6.376;-10.782;2023-12-29T02:22:04;57.97;;;31.55;;
56321;SDS011;42227;6.376;-10.782;2023-12-29T02:24:34;54.10;;;31.63;;
56321;SDS011;42227;6.376;-10.782;2023-12-29T02:29:45;58.05;;;30.83;;
56321;SDS011;42227;6.376;-10.782;2023-12-29T02:32:23;58.15;;;33.60;;
56321;SDS011;42227;6.376;-10.782;2023-12-29T02:34:57;51.25;;;29.17;;
56321;SDS011;42227;6.376;-10.782;2023-12-29T02:37:27;74.13;;;31.90;;
56321;SDS011;42227;6.376;-10.782;2023-12-29T02:39:58;53.10;;;28.90;;
56321;SDS011;42227;6.376;-10.782;2023-12-29T02:42:27;57.25;;;28.50;;
56321;SDS011;42227;6.376;-10.782;2023-12-29T02:44:55;53.80;;;30.52;;
56321;SDS011;42227;6.376;-10.782;2023-12-29T02:47:24;59.25;;;29.65;;
56321;SDS011;42227;6.376;-10.782;2023-12-29T02:49:53;55.08;;;30.05;;
56321;SDS011;42227;6.376;-10.782;2023-12-29T02:52:22;71.28;;;30.80;;
56321;SDS011;42227;6.376;-10.782;2023-12-29T02:54:50;56.15;;;33.00;;
56321;SDS011;42227;6.376;-10.782;2023-12-29T02:57:20;85.45;;;44.80;;
56321;SDS011;42227;6.376;-10.782;2023-12-29T02:59:48;90.90;;;43.88;;
56321;SDS011;42227;6.376;-10.782;2023-12-29T03:02:17;71.90;;;41.33;;
56321;SDS011;42227;6.376;-10.782;2023-12-29T03:04:47;82.68;;;45.38;;
56321;SDS011;42227;6.376;-10.782;2023-12-29T03:07:15;80.50;;;44.30;;
56321;SDS011;42227;6.376;-10.782;2023-12-29T03:09:44;80.47;;;52.20;;
56321;SDS011;42227;6.376;-10.782;2023-12-29T03:12:12;97.57;;;52.65;;
56321;SDS011;42227;6.376;-10.782;2023-12-29T03:14:41;102.05;;;43.83;;
56321;SDS011;42227;6.376;-10.782;2023-12-29T03:17:09;78.18;;;33.72;;
56321;SDS011;42227;6.376;-10.782;2023-12-29T03:19:39;64.05;;;39.75;;
56321;SDS011;42227;6.376;-10.782;2023-12-29T03:22:08;56.60;;;34.90;;
56321;SDS011;42227;6.376;-10.782;2023-12-29T03:24:36;65.50;;;34.22;;
56321;SDS011;42227;6.376;-10.782;2023-12-29T03:27:08;59.80;;;34.17;;
56321;SDS011;42227;6.376;-10.782;2023-12-29T03:29:36;56.38;;;31.77;;
56321;SDS011;42227;6.376;-10.782;2023-12-29T03:32:04;82.40;;;33.15;;
56321;SDS011;42227;6.376;-10.782;2023-12-29T03:34:33;53.67;;;27.13;;
56321;SDS011;42227;6.376;-10.782;2023-12-29T03:37:02;47.88;;;27.73;;
56321;SDS011;42227;6.376;-10.782;2023-12-29T03:39:31;52.85;;;28.38;;
56321;SDS011;42227;6.376;-10.782;2023-12-29T03:41:59;50.83;;;25.45;;
56321;SDS011;42227;6.376;-10.782;2023-12-29T03:44:27;44.83;;;25.70;;
56321;SDS011;42227;6.376;-10.782;2023-12-29T03:46:55;53.83;;;24.58;;
56321;SDS011;42227;6.376;-10.782;2023-12-29T03:49:24;39.15;;;23.67;;
56321;SDS011;42227;6.376;-10.782;2023-12-29T03:51:52;58.30;;;27.38;;
56321;SDS011;42227;6.376;-10.782;2023-12-29T03:54:21;53.65;;;25.67;;
56321;SDS011;42227;6.376;-10.782;2023-12-29T03:56:50;54.00;;;26.67;;
56321;SDS011;42227;6.376;-10.782;2023-12-29T03:59:18;50.40;;;26.25;;
56321;SDS011;42227;6.376;-10.782;2023-12-29T04:01:46;59.13;;;28.60;;
56321;SDS011;42227;6.376;-10.782;2023-12-29T04:04:16;49.28;;;28.45;;
56321;SDS011;42227;6.376;-10.782;2023-12-29T04:06:44;53.70;;;29.65;;
56321;SDS011;42227;6.376;-10.782;2023-12-29T04:09:13;52.20;;;31.20;;
56321;SDS011;42227;6.376;-10.782;2023-12-29T04:11:41;56.35;;;28.88;;
56321;SDS011;42227;6.376;-10.782;2023-12-29T04:14:10;58.20;;;30.05;;
56321;SDS011;42227;6.376;-10.782;2023-12-29T04:16:38;60.55;;;32.72;;
56321;SDS011;42227;6.376;-10.782;2023-12-29T04:19:06;83.63;;;32.75;;
56321;SDS011;42227;6.376;-10.782;2023-12-29T04:21:35;55.22;;;27.95;;
56321;SDS011;42227;6.376;-10.782;2023-12-29T04:24:03;49.65;;;30.75;;
56321;SDS011;42227;6.376;-10.782;2023-12-29T04:26:35;69.47;;;30.60;;
56321;SDS011;42227;6.376;-10.782;2023-12-29T04:29:04;62.05;;;28.75;;
56321;SDS011;42227;6.376;-10.782;2023-12-29T04:31:33;53.05;;;30.58;;
56321;SDS011;42227;6.376;-10.782;2023-12-29T04:34:02;78.72;;;32.80;;
56321;SDS011;42227;6.376;-10.782;2023-12-29T04:36:31;67.10;;;36.53;;
56321;SDS011;42227;6.376;-10.782;2023-12-29T04:38:59;86.38;;;35.33;;
56321;SDS011;42227;6.376;-10.782;2023-12-29T04:41:27;82.32;;;33.10;;
56321;SDS011;42227;6.376;-10.782;2023-12-29T04:43:56;65.93;;;31.35;;
56321;SDS011;42227;6.376;-10.782;2023-12-29T04:46:24;60.65;;;30.63;;
56321;SDS011;42227;6.376;-10.782;2023-12-29T04:48:53;56.78;;;27.35;;
56321;SDS011;42227;6.376;-10.782;2023-12-29T04:51:21;58.97;;;29.08;;
56321;SDS011;42227;6.376;-10.782;2023-12-29T04:53:50;53.03;;;28.90;;
56321;SDS011;42227;6.376;-10.782;2023-12-29T04:56:19;41.88;;;28.92;;
56321;SDS011;42227;6.376;-10.782;2023-12-29T04:58:47;57.22;;;33.30;;
56321;SDS011;42227;6.376;-10.782;2023-12-29T05:01:15;50.78;;;26.88;;
56321;SDS011;42227;6.376;-10.782;2023-12-29T05:03:44;48.42;;;26.83;;
56321;SDS011;42227;6.376;-10.782;2023-12-29T05:06:12;59.95;;;27.67;;
56321;SDS011;42227;6.376;-10.782;2023-12-29T05:08:41;64.50;;;29.92;;
56321;SDS011;42227;6.376;-10.782;2023-12-29T05:11:09;44.05;;;25.45;;
56321;SDS011;42227;6.376;-10.782;2023-12-29T05:13:37;52.17;;;27.73;;
56321;SDS011;42227;6.376;-10.782;2023-12-29T05:16:06;44.83;;;27.33;;
56321;SDS011;42227;6.376;-10.782;2023-12-29T05:18:34;66.95;;;28.15;;
56321;SDS011;42227;6.376;-10.782;2023-12-29T05:21:03;55.90;;;27.52;;
56321;SDS011;42227;6.376;-10.782;2023-12-29T05:23:33;44.20;;;27.85;;
56321;SDS011;42227;6.376;-10.782;2023-12-29T05:26:01;59.85;;;32.33;;
56321;SDS011;42227;6.376;-10.782;2023-12-29T05:28:29;67.03;;;33.03;;
56321;SDS011;42227;6.376;-10.782;2023-12-29T05:30:58;50.65;;;29.70;;
56321;SDS011;42227;6.376;-10.782;2023-12-29T05:33:29;65.90;;;33.90;;
56321;SDS011;42227;6.376;-10.782;2023-12-29T05:36:08;61.08;;;34.35;;
56321;SDS011;42227;6.376;-10.782;2023-12-29T05:38:37;79.63;;;36.22;;
56321;SDS011;42227;6.376;-10.782;2023-12-29T05:41:06;78.03;;;37.67;;
56321;SDS011;42227;6.376;-10.782;2023-12-29T05:43:35;64.97;;;38.08;;
56321;SDS011;42227;6.376;-10.782;2023-12-29T05:46:08;64.60;;;33.13;;
56321;SDS011;42227;6.376;-10.782;2023-12-29T05:48:38;56.70;;;35.95;;
56321;SDS011;42227;6.376;-10.782;2023-12-29T05:51:10;69.57;;;35.35;;
56321;SDS011;42227;6.376;-10.782;2023-12-29T05:53:40;63.95;;;32.17;;
56321;SDS011;42227;6.376;-10.782;2023-12-29T05:56:11;49.00;;;28.73;;
56321;SDS011;42227;6.376;-10.782;2023-12-29T05:58:41;63.80;;;30.92;;
56321;SDS011;42227;6.376;-10.782;2023-12-29T06:01:09;67.47;;;31.85;;
56321;SDS011;42227;6.376;-10.782;2023-12-29T06:03:38;47.30;;;28.38;;
56321;SDS011;42227;6.376;-10.782;2023-12-29T06:06:07;47.13;;;28.10;;
56321;SDS011;42227;6.376;-10.782;2023-12-29T06:08:35;57.45;;;29.50;;
56321;SDS011;42227;6.376;-10.782;2023-12-29T06:11:04;50.65;;;25.85;;
56321;SDS011;42227;6.376;-10.782;2023-12-29T06:13:32;50.97;;;26.98;;
56321;SDS011;42227;6.376;-10.782;2023-12-29T06:16:00;55.42;;;25.08;;
56321;SDS011;42227;6.376;-10.782;2023-12-29T06:18:29;47.10;;;23.17;;
56321;SDS011;42227;6.376;-10.782;2023-12-29T06:20:57;52.40;;;27.75;;
56321;SDS011;42227;6.376;-10.782;2023-12-29T06:23:25;37.72;;;25.17;;
56321;SDS011;42227;6.376;-10.782;2023-12-29T06:25:54;47.88;;;29.77;;
56321;SDS011;42227;6.376;-10.782;2023-12-29T06:28:22;49.08;;;24.45;;
56321;SDS011;42227;6.376;-10.782;2023-12-29T06:30:51;43.53;;;26.92;;
56321;SDS011;42227;6.376;-10.782;2023-12-29T06:33:20;69.63;;;27.27;;
56321;SDS011;42227;6.376;-10.782;2023-12-29T06:35:49;38.97;;;22.98;;
56321;SDS011;42227;6.376;-10.782;2023-12-29T06:38:17;47.22;;;23.48;;
56321;SDS011;42227;6.376;-10.782;2023-12-29T06:40:46;41.72;;;21.98;;
56321;SDS011;42227;6.376;-10.782;2023-12-29T06:43:14;37.10;;;23.83;;
56321;SDS011;42227;6.376;-10.782;2023-12-29T06:45:42;39.67;;;22.02;;
56321;SDS011;42227;6.376;-10.782;2023-12-29T06:48:11;30.05;;;21.63;;
56321;SDS011;42227;6.376;-10.782;2023-12-29T06:50:39;39.88;;;20.73;;
56321;SDS011;42227;6.376;-10.782;2023-12-29T06:53:08;30.27;;;17.67;;
56321;SDS011;42227;6.376;-10.782;2023-12-29T06:55:36;27.23;;;19.50;;
56321;SDS011;42227;6.376;-10.782;2023-12-29T06:58:05;39.22;;;20.60;;
56321;SDS011;42227;6.376;-10.782;2023-12-29T07:00:33;29.23;;;20.92;;
56321;SDS011;42227;6.376;-10.782;2023-12-29T07:03:02;37.78;;;21.58;;
56321;SDS011;42227;6.376;-10.782;2023-12-29T07:05:30;42.08;;;23.83;;
56321;SDS011;42227;6.376;-10.782;2023-12-29T07:07:59;39.72;;;24.60;;
56321;SDS011;42227;6.376;-10.782;2023-12-29T07:10:28;48.90;;;25.90;;
56321;SDS011;42227;6.376;-10.782;2023-12-29T07:12:56;47.72;;;23.73;;
56321;SDS011;42227;6.376;-10.782;2023-12-29T07:15:24;31.15;;;20.27;;
56321;SDS011;42227;6.376;-10.782;2023-12-29T07:17:52;31.23;;;19.88;;
56321;SDS011;42227;6.376;-10.782;2023-12-29T07:20:21;32.22;;;18.58;;
56321;SDS011;42227;6.376;-10.782;2023-12-29T07:22:51;52.55;;;20.63;;
56321;SDS011;42227;6.376;-10.782;2023-12-29T07:25:20;37.17;;;19.92;;
56321;SDS011;42227;6.376;-10.782;2023-12-29T07:27:48;34.35;;;19.73;;
56321;SDS011;42227;6.376;-10.782;2023-12-29T07:30:16;36.35;;;21.08;;
56321;SDS011;42227;6.376;-10.782;2023-12-29T07:32:45;37.13;;;22.70;;
56321;SDS011;42227;6.376;-10.782;2023-12-29T07:35:13;28.10;;;22.10;;
56321;SDS011;42227;6.376;-10.782;2023-12-29T07:37:42;30.20;;;19.45;;
56321;SDS011;42227;6.376;-10.782;2023-12-29T07:40:11;41.15;;;20.38;;
56321;SDS011;42227;6.376;-10.782;2023-12-29T07:42:40;36.00;;;20.60;;
56321;SDS011;42227;6.376;-10.782;2023-12-29T07:45:08;36.55;;;21.55;;
56321;SDS011;42227;6.376;-10.782;2023-12-29T07:47:37;31.77;;;22.75;;
56321;SDS011;42227;6.376;-10.782;2023-12-29T07:50:05;41.25;;;24.70;;
56321;SDS011;42227;6.376;-10.782;2023-12-29T07:52:34;46.25;;;27.73;;
56321;SDS011;42227;6.376;-10.782;2023-12-29T07:55:03;50.33;;;29.27;;
56321;SDS011;42227;6.376;-10.782;2023-12-29T07:57:31;51.78;;;30.08;;
56321;SDS011;42227;6.376;-10.782;2023-12-29T08:00:00;55.03;;;27.90;;
56321;SDS011;42227;6.376;-10.782;2023-12-29T08:02:37;48.72;;;24.50;;
56321;SDS011;42227;6.376;-10.782;2023-12-29T08:05:06;41.67;;;24.52;;
56321;SDS011;42227;6.376;-10.782;2023-12-29T08:07:35;40.78;;;23.75;;
56321;SDS011;42227;6.376;-10.782;2023-12-29T08:10:04;44.05;;;22.08;;
56321;SDS011;42227;6.376;-10.782;2023-12-29T08:12:33;34.25;;;22.38;;
56321;SDS011;42227;6.376;-10.782;2023-12-29T08:15:02;44.42;;;23.80;;
56321;SDS011;42227;6.376;-10.782;2023-12-29T08:17:31;37.05;;;20.90;;
56321;SDS011;42227;6.376;-10.782;2023-12-29T08:20:00;42.65;;;21.65;;
56321;SDS011;42227;6.376;-10.782;2023-12-29T08:22:29;40.17;;;23.08;;
56321;SDS011;42227;6.376;-10.782;2023-12-29T08:24:58;41.22;;;23.77;;
56321;SDS011;42227;6.376;-10.782;2023-12-29T08:27:27;37.20;;;22.40;;
56321;SDS011;42227;6.376;-10.782;2023-12-29T08:29:55;39.60;;;20.73;;
56321;SDS011;42227;6.376;-10.782;2023-12-29T08:32:23;38.38;;;19.45;;
56321;SDS011;42227;6.376;-10.782;2023-12-29T08:34:52;47.53;;;21.73;;
56321;SDS011;42227;6.376;-10.782;2023-12-29T08:37:20;43.60;;;21.88;;
56321;SDS011;42227;6.376;-10.782;2023-12-29T08:39:49;44.70;;;25.27;;
56321;SDS011;42227;6.376;-10.782;2023-12-29T08:42:17;38.55;;;21.08;;
56321;SDS011;42227;6.376;-10.782;2023-12-29T08:44:45;35.67;;;19.73;;
56321;SDS011;42227;6.376;-10.782;2023-12-29T08:47:14;40.70;;;19.60;;
56321;SDS011;42227;6.376;-10.782;2023-12-29T08:49:42;34.42;;;17.50;;
56321;SDS011;42227;6.376;-10.782;2023-12-29T08:52:10;27.10;;;15.38;;
56321;SDS011;42227;6.376;-10.782;2023-12-29T08:54:39;36.58;;;19.25;;
56321;SDS011;42227;6.376;-10.782;2023-12-29T08:57:07;41.22;;;19.63;;
56321;SDS011;42227;6.376;-10.782;2023-12-29T08:59:35;35.17;;;18.80;;
56321;SDS011;42227;6.376;-10.782;2023-12-29T09:02:04;35.80;;;18.35;;
56321;SDS011;42227;6.376;-10.782;2023-12-29T09:04:33;33.85;;;17.55;;
56321;SDS011;42227;6.376;-10.782;2023-12-29T09:07:01;42.25;;;18.85;;
56321;SDS011;42227;6.376;-10.782;2023-12-29T09:09:30;41.15;;;17.63;;
56321;SDS011;42227;6.376;-10.782;2023-12-29T09:11:58;47.53;;;16.95;;
56321;SDS011;42227;6.376;-10.782;2023-12-29T09:14:27;37.63;;;18.23;;
56321;SDS011;42227;6.376;-10.782;2023-12-29T09:16:55;25.20;;;16.92;;
56321;SDS011;42227;6.376;-10.782;2023-12-29T09:19:23;32.47;;;16.67;;
56321;SDS011;42227;6.376;-10.782;2023-12-29T09:22:05;31.80;;;16.65;;
56321;SDS011;42227;6.376;-10.782;2023-12-29T09:24:33;43.42;;;18.20;;
56321;SDS011;42227;6.376;-10.782;2023-12-29T09:27:02;41.60;;;16.48;;
56321;SDS011;42227;6.376;-10.782;2023-12-29T09:29:30;35.55;;;17.88;;
56321;SDS011;42227;6.376;-10.782;2023-12-29T09:31:59;43.60;;;17.67;;
56321;SDS011;42227;6.376;-10.782;2023-12-29T09:34:27;37.97;;;19.00;;
56321;SDS011;42227;6.376;-10.782;2023-12-29T09:36:56;37.60;;;18.92;;
56321;SDS011;42227;6.376;-10.782;2023-12-29T09:39:24;29.50;;;16.60;;
56321;SDS011;42227;6.376;-10.782;2023-12-29T09:41:53;40.33;;;18.25;;
56321;SDS011;42227;6.376;-10.782;2023-12-29T09:44:25;39.72;;;21.08;;
56321;SDS011;42227;6.376;-10.782;2023-12-29T09:46:57;52.38;;;23.70;;
56321;SDS011;42227;6.376;-10.782;2023-12-29T09:49:31;80.45;;;32.65;;
56321;SDS011;42227;6.376;-10.782;2023-12-29T09:52:09;71.25;;;26.60;;
56321;SDS011;42227;6.376;-10.782;2023-12-29T09:54:40;47.63;;;23.95;;
56321;SDS011;42227;6.376;-10.782;2023-12-29T09:57:09;58.72;;;32.70;;
56321;SDS011;42227;6.376;-10.782;2023-12-29T09:59:38;133.65;;;34.88;;
56321;SDS011;42227;6.376;-10.782;2023-12-29T10:02:16;65.68;;;23.90;;
56321;SDS011;42227;6.376;-10.782;2023-12-29T10:04:44;50.55;;;22.40;;
56321;SDS011;42227;6.376;-10.782;2023-12-29T10:07:15;52.28;;;27.15;;
56321;SDS011;42227;6.376;-10.782;2023-12-29T10:09:55;56.90;;;24.17;;
56321;SDS011;42227;6.376;-10.782;2023-12-29T10:12:25;49.17;;;24.40;;
56321;SDS011;42227;6.376;-10.782;2023-12-29T10:26:22;39.05;;;18.95;;
56321;SDS011;42227;6.376;-10.782;2023-12-29T10:28:52;78.47;;;22.73;;
56321;SDS011;42227;6.376;-10.782;2023-12-29T10:31:20;35.55;;;18.92;;
56321;SDS011;42227;6.376;-10.782;2023-12-29T10:33:51;62.95;;;22.95;;
56321;SDS011;42227;6.376;-10.782;2023-12-29T10:36:19;44.08;;;20.38;;
56321;SDS011;42227;6.376;-10.782;2023-12-29T10:38:48;55.42;;;19.05;;
56321;SDS011;42227;6.376;-10.782;2023-12-29T10:41:33;45.00;;;21.63;;
56321;SDS011;42227;6.376;-10.782;2023-12-29T10:44:05;61.40;;;23.25;;
56321;SDS011;42227;6.376;-10.782;2023-12-29T10:46:34;37.47;;;17.85;;
56321;SDS011;42227;6.376;-10.782;2023-12-29T10:49:10;44.72;;;19.88;;
56321;SDS011;42227;6.376;-10.782;2023-12-29T10:51:39;49.08;;;21.15;;
56321;SDS011;42227;6.376;-10.782;2023-12-29T10:54:08;41.72;;;18.70;;
56321;SDS011;42227;6.376;-10.782;2023-12-29T10:56:47;45.85;;;19.38;;
56321;SDS011;42227;6.376;-10.782;2023-12-29T10:59:28;39.05;;;23.90;;
56321;SDS011;42227;6.376;-10.782;2023-12-29T11:01:57;39.38;;;20.30;;
56321;SDS011;42227;6.376;-10.782;2023-12-29T11:04:33;40.38;;;20.42;;
56321;SDS011;42227;6.376;-10.782;2023-12-29T11:07:01;34.85;;;19.30;;
56321;SDS011;42227;6.376;-10.782;2023-12-29T11:09:31;55.47;;;22.67;;
56321;SDS011;42227;6.376;-10.782;2023-12-29T11:12:01;44.75;;;21.42;;
56321;SDS011;42227;6.376;-10.782;2023-12-29T11:14:31;31.42;;;20.92;;
56321;SDS011;42227;6.376;-10.782;2023-12-29T11:17:00;43.17;;;20.05;;
56321;SDS011;42227;6.376;-10.782;2023-12-29T11:19:28;28.25;;;21.20;;
56321;SDS011;42227;6.376;-10.782;2023-12-29T11:21:57;51.67;;;21.48;;
56321;SDS011;42227;6.376;-10.782;2023-12-29T11:24:26;64.47;;;25.38;;
56321;SDS011;42227;6.376;-10.782;2023-12-29T11:27:05;61.15;;;28.00;;
56321;SDS011;42227;6.376;-10.782;2023-12-29T11:29:35;41.08;;;20.55;;
56321;SDS011;42227;6.376;-10.782;2023-12-29T11:32:04;38.13;;;18.17;;
56321;SDS011;42227;6.376;-10.782;2023-12-29T11:34:46;43.35;;;20.27;;
56321;SDS011;42227;6.376;-10.782;2023-12-29T11:40:19;38.97;;;20.25;;
56321;SDS011;42227;6.376;-10.782;2023-12-29T11:43:12;49.53;;;18.75;;
56321;SDS011;42227;6.376;-10.782;2023-12-29T11:45:44;41.53;;;19.17;;
56321;SDS011;42227;6.376;-10.782;2023-12-29T11:48:12;47.00;;;16.83;;
56321;SDS011;42227;6.376;-10.782;2023-12-29T11:51:01;54.03;;;20.58;;
56321;SDS011;42227;6.376;-10.782;2023-12-29T11:53:47;39.35;;;19.80;;
56321;SDS011;42227;6.376;-10.782;2023-12-29T11:56:15;40.10;;;17.13;;
56321;SDS011;42227;6.376;-10.782;2023-12-29T11:58:44;37.13;;;17.85;;
56321;SDS011;42227;6.376;-10.782;2023-12-29T12:01:12;41.60;;;19.35;;
56321;SDS011;42227;6.376;-10.782;2023-12-29T12:03:41;38.47;;;19.27;;
56321;SDS011;42227;6.376;-10.782;2023-12-29T12:06:10;46.17;;;18.15;;
56321;SDS011;42227;6.376;-10.782;2023-12-29T12:08:38;45.95;;;17.73;;
56321;SDS011;42227;6.376;-10.782;2023-12-29T12:13:57;40.97;;;18.63;;
56321;SDS011;42227;6.376;-10.782;2023-12-29T12:19:12;51.33;;;22.88;;
56321;SDS011;42227;6.376;-10.782;2023-12-29T12:21:41;42.38;;;22.13;;
56321;SDS011;42227;6.376;-10.782;2023-12-29T12:24:13;39.70;;;20.33;;
56321;SDS011;42227;6.376;-10.782;2023-12-29T12:26:45;48.42;;;22.30;;
56321;SDS011;42227;6.376;-10.782;2023-12-29T12:29:14;48.72;;;21.00;;
56321;SDS011;42227;6.376;-10.782;2023-12-29T12:31:55;54.08;;;19.58;;
56321;SDS011;42227;6.376;-10.782;2023-12-29T12:34:24;37.22;;;23.58;;
56321;SDS011;42227;6.376;-10.782;2023-12-29T12:36:53;56.65;;;21.90;;
56321;SDS011;42227;6.376;-10.782;2023-12-29T12:39:22;45.63;;;25.10;;
56321;SDS011;42227;6.376;-10.782;2023-12-29T12:41:50;43.35;;;21.63;;
56321;SDS011;42227;6.376;-10.782;2023-12-29T12:44:19;48.13;;;24.52;;
56321;SDS011;42227;6.376;-10.782;2023-12-29T12:49:15;44.00;;;20.20;;
56321;SDS011;42227;6.376;-10.782;2023-12-29T12:51:44;44.90;;;20.75;;
56321;SDS011;42227;6.376;-10.782;2023-12-29T12:54:15;47.38;;;20.20;;
56321;SDS011;42227;6.376;-10.782;2023-12-29T12:56:46;47.67;;;20.85;;
56321;SDS011;42227;6.376;-10.782;2023-12-29T12:59:15;54.40;;;20.65;;
56321;SDS011;42227;6.376;-10.782;2023-12-29T13:01:43;42.03;;;18.83;;
56321;SDS011;42227;6.376;-10.782;2023-12-29T13:04:13;46.65;;;22.38;;
56321;SDS011;42227;6.376;-10.782;2023-12-29T13:06:42;44.60;;;22.65;;
56321;SDS011;42227;6.376;-10.782;2023-12-29T13:09:15;44.35;;;21.55;;
56321;SDS011;42227;6.376;-10.782;2023-12-29T13:11:44;43.80;;;21.15;;
56321;SDS011;42227;6.376;-10.782;2023-12-29T13:14:21;54.75;;;22.35;;
56321;SDS011;42227;6.376;-10.782;2023-12-29T13:16:51;45.78;;;21.02;;
56321;SDS011;42227;6.376;-10.782;2023-12-29T13:19:20;58.30;;;20.38;;
56321;SDS011;42227;6.376;-10.782;2023-12-29T13:21:50;37.78;;;19.13;;
56321;SDS011;42227;6.376;-10.782;2023-12-29T13:24:23;51.35;;;22.55;;
56321;SDS011;42227;6.376;-10.782;2023-12-29T13:27:01;33.75;;;19.30;;
56321;SDS011;42227;6.376;-10.782;2023-12-29T13:29:32;46.15;;;20.38;;
56321;SDS011;42227;6.376;-10.782;2023-12-29T13:37:30;49.80;;;21.13;;
56321;SDS011;42227;6.376;-10.782;2023-12-29T13:42:58;48.35;;;18.98;;
56321;SDS011;42227;6.376;-10.782;2023-12-29T13:45:30;40.03;;;19.52;;
56321;SDS011;42227;6.376;-10.782;2023-12-29T13:48:00;51.05;;;20.00;;
56321;SDS011;42227;6.376;-10.782;2023-12-29T13:50:30;45.30;;;19.00;;
56321;SDS011;42227;6.376;-10.782;2023-12-29T13:52:59;42.83;;;20.42;;
56321;SDS011;42227;6.376;-10.782;2023-12-29T13:55:27;35.42;;;19.50;;
56321;SDS011;42227;6.376;-10.782;2023-12-29T13:57:56;51.15;;;22.83;;
56321;SDS011;42227;6.376;-10.782;2023-12-29T14:00:25;53.38;;;20.60;;
56321;SDS011;42227;6.376;-10.782;2023-12-29T14:10:33;46.97;;;20.20;;
56321;SDS011;42227;6.376;-10.782;2023-12-29T14:13:12;48.15;;;22.80;;
56321;SDS011;42227;6.376;-10.782;2023-12-29T14:15:43;39.60;;;18.75;;
56321;SDS011;42227;6.376;-10.782;2023-12-29T14:20:40;42.85;;;18.58;;
56321;SDS011;42227;6.376;-10.782;2023-12-29T14:23:09;51.75;;;24.48;;
56321;SDS011;42227;6.376;-10.782;2023-12-29T14:25:37;40.80;;;18.85;;
56321;SDS011;42227;6.376;-10.782;2023-12-29T14:28:16;60.30;;;22.27;;
56321;SDS011;42227;6.376;-10.782;2023-12-29T14:30:45;35.90;;;21.55;;
56321;SDS011;42227;6.376;-10.782;2023-12-29T14:33:14;33.80;;;17.50;;
56321;SDS011;42227;6.376;-10.782;2023-12-29T14:35:42;47.92;;;19.23;;
56321;SDS011;42227;6.376;-10.782;2023-12-29T14:38:11;41.75;;;17.67;;
56321;SDS011;42227;6.376;-10.782;2023-12-29T14:40:39;38.95;;;17.10;;
56321;SDS011;42227;6.376;-10.782;2023-12-29T14:43:08;45.67;;;19.92;;
56321;SDS011;42227;6.376;-10.782;2023-12-29T14:45:36;43.15;;;16.65;;
56321;SDS011;42227;6.376;-10.782;2023-12-29T14:48:05;32.00;;;18.67;;
56321;SDS011;42227;6.376;-10.782;2023-12-29T14:50:34;39.40;;;20.40;;
56321;SDS011;42227;6.376;-10.782;2023-12-29T14:53:02;58.55;;;19.65;;
56321;SDS011;42227;6.376;-10.782;2023-12-29T14:55:30;33.35;;;17.60;;
56321;SDS011;42227;6.376;-10.782;2023-12-29T14:57:59;41.92;;;19.15;;
56321;SDS011;42227;6.376;-10.782;2023-12-29T15:00:28;47.90;;;21.35;;
56321;SDS011;42227;6.376;-10.782;2023-12-29T15:02:56;41.97;;;19.33;;
56321;SDS011;42227;6.376;-10.782;2023-12-29T15:05:24;50.20;;;21.15;;
56321;SDS011;42227;6.376;-10.782;2023-12-29T15:07:53;38.67;;;18.95;;
56321;SDS011;42227;6.376;-10.782;2023-12-29T15:10:21;25.08;;;15.30;;